createdAt,value
2023-03-11T00:01:47.611Z,2.92
2023-03-11T00:04:22.594Z,3.65
2023-03-11T00:06:55.610Z,2.75
2023-03-11T00:09:24.078Z,3.45
2023-03-11T00:11:53.356Z,2.97
2023-03-11T00:14:26.565Z,3.40
2023-03-11T00:17:03.140Z,3.53
2023-03-11T00:19:33.798Z,3.22
2023-03-11T00:22:04.577Z,2.33
2023-03-11T00:24:34.646Z,3.08
2023-03-11T00:27:15.099Z,3.75
2023-03-11T00:29:48.240Z,3.85
2023-03-11T00:32:19.369Z,3.45
2023-03-11T00:34:50.208Z,4.57
2023-03-11T00:37:22.410Z,3.55
2023-03-11T00:39:50.615Z,2.88
2023-03-11T00:42:25.494Z,2.40
2023-03-11T00:47:45.896Z,3.00
2023-03-11T00:53:31.140Z,2.42
2023-03-11T00:56:17.546Z,3.72
2023-03-11T00:59:00.632Z,3.08
2023-03-11T01:01:40.758Z,2.90
2023-03-11T01:04:36.570Z,2.90
2023-03-11T01:07:10.992Z,2.80
2023-03-11T01:10:10.472Z,2.95
2023-03-11T01:15:51.366Z,2.60
2023-03-11T01:18:23.963Z,3.30
2023-03-11T01:20:57.020Z,2.42
2023-03-11T01:23:30.852Z,2.63
2023-03-11T01:26:04.203Z,3.00
2023-03-11T01:28:42.418Z,2.67
2023-03-11T01:31:24.967Z,2.85
2023-03-11T01:33:53.919Z,2.85
2023-03-11T01:36:25.422Z,2.85
2023-03-11T01:39:04.881Z,2.75
2023-03-11T01:41:36.335Z,3.28
2023-03-11T01:44:37.906Z,2.67
2023-03-11T01:47:06.425Z,2.65
2023-03-11T01:52:52.817Z,3.00
2023-03-11T01:55:30.289Z,3.22
2023-03-11T02:00:50.798Z,3.40
2023-03-11T02:07:01.830Z,3.30
2023-03-11T02:09:38.899Z,3.63
2023-03-11T02:12:37.999Z,3.75
2023-03-11T02:15:28.250Z,2.72
2023-03-11T02:18:05.128Z,3.13
2023-03-11T02:24:33.360Z,2.72
2023-03-11T02:27:29.728Z,3.55
2023-03-11T02:30:03.271Z,3.42
2023-03-11T02:32:48.954Z,3.00
2023-03-11T02:35:20.488Z,3.38
2023-03-11T02:38:04.140Z,2.85
2023-03-11T02:41:11.814Z,3.65
2023-03-11T02:43:58.085Z,3.78
2023-03-11T02:46:28.406Z,3.75
2023-03-11T02:49:00.139Z,3.40
2023-03-11T02:51:32.629Z,2.50
2023-03-11T02:54:11.939Z,2.65
2023-03-11T02:56:41.900Z,2.97
2023-03-11T02:59:21.185Z,3.08
2023-03-11T03:02:06.215Z,2.90
2023-03-11T03:04:37.153Z,2.75
2023-03-11T03:07:07.393Z,3.55
2023-03-11T03:09:38.065Z,3.58
2023-03-11T03:12:11.955Z,3.17
2023-03-11T03:14:43.025Z,3.30
2023-03-11T03:17:14.964Z,3.70
2023-03-11T03:19:45.014Z,3.10
2023-03-11T03:22:17.036Z,3.53
2023-03-11T03:24:48.626Z,3.10
2023-03-11T03:27:26.222Z,2.90
2023-03-11T03:30:00.644Z,3.72
2023-03-11T03:32:30.955Z,3.08
2023-03-11T03:35:01.735Z,4.30
2023-03-11T03:38:05.685Z,3.20
2023-03-11T03:40:50.164Z,3.63
2023-03-11T03:43:25.319Z,3.00
2023-03-11T03:46:10.113Z,3.78
2023-03-11T03:49:17.652Z,3.70
2023-03-11T03:51:48.814Z,2.95
2023-03-11T03:54:36.001Z,3.92
2023-03-11T04:03:02.495Z,2.90
2023-03-11T04:06:02.832Z,2.90
2023-03-11T04:08:37.584Z,3.47
2023-03-11T04:11:14.736Z,3.70
2023-03-11T04:13:45.832Z,2.88
2023-03-11T04:16:32.841Z,3.47
2023-03-11T04:19:10.731Z,3.90
2023-03-11T04:21:44.081Z,3.60
2023-03-11T04:24:14.157Z,3.72
2023-03-11T04:26:51.709Z,3.92
2023-03-11T04:29:22.111Z,3.13
2023-03-11T04:31:54.936Z,3.58
2023-03-11T04:34:26.263Z,2.63
2023-03-11T04:37:05.019Z,5.00
2023-03-11T04:39:47.137Z,3.35
2023-03-11T04:47:59.103Z,3.15
2023-03-11T04:50:33.067Z,4.32
2023-03-11T04:53:04.816Z,3.45
2023-03-11T04:55:51.556Z,3.35
2023-03-11T04:58:26.128Z,3.47
2023-03-11T05:03:48.297Z,3.10
2023-03-11T05:09:25.495Z,3.72
2023-03-11T05:12:02.363Z,3.55
2023-03-11T05:14:36.625Z,4.07
2023-03-11T05:17:06.892Z,4.57
2023-03-11T05:19:36.097Z,3.22
2023-03-11T05:22:17.556Z,3.60
2023-03-11T05:24:50.002Z,2.70
2023-03-11T05:27:28.071Z,4.03
2023-03-11T05:30:02.057Z,2.78
2023-03-11T05:32:35.072Z,3.17
2023-03-11T05:35:23.857Z,4.20
2023-03-11T05:37:55.446Z,3.40
2023-03-11T05:40:28.073Z,3.92
2023-03-11T05:42:56.460Z,3.92
2023-03-11T05:45:29.837Z,3.05
2023-03-11T05:48:04.874Z,3.88
2023-03-11T05:53:30.581Z,4.20
2023-03-11T05:56:29.022Z,3.78
2023-03-11T06:01:56.168Z,3.72
2023-03-11T06:04:32.035Z,3.45
2023-03-11T06:07:17.684Z,4.00
2023-03-11T06:10:03.257Z,3.25
2023-03-11T06:13:01.015Z,4.13
2023-03-11T06:15:48.778Z,4.95
2023-03-11T06:19:01.286Z,4.82
2023-03-11T06:21:58.652Z,3.78
2023-03-11T06:24:53.842Z,3.45
2023-03-11T06:27:53.837Z,3.88
2023-03-11T06:33:12.048Z,5.25
2023-03-11T06:35:42.000Z,4.10
2023-03-11T06:38:17.526Z,3.80
2023-03-11T06:40:48.463Z,4.13
2023-03-11T06:43:21.654Z,3.97
2023-03-11T06:46:19.690Z,4.00
2023-03-11T06:48:52.737Z,4.85
2023-03-11T06:51:30.344Z,5.18
2023-03-11T06:54:06.565Z,4.05
2023-03-11T06:56:39.189Z,4.63
2023-03-11T06:59:11.009Z,4.25
2023-03-11T07:01:55.454Z,4.32
2023-03-11T07:04:28.411Z,4.95
2023-03-11T07:06:56.925Z,3.97
2023-03-11T07:09:33.040Z,4.10
2023-03-11T07:12:14.289Z,3.63
2023-03-11T07:14:44.806Z,4.03
2023-03-11T07:17:14.204Z,5.03
2023-03-11T07:19:52.819Z,4.78
2023-03-11T07:27:58.038Z,3.95
2023-03-11T07:33:24.679Z,3.67
2023-03-11T07:36:27.925Z,3.60
2023-03-11T07:39:06.514Z,4.00
2023-03-11T07:41:57.850Z,4.15
2023-03-11T07:44:37.993Z,3.95
2023-03-11T07:50:01.684Z,3.83
2023-03-11T07:52:40.025Z,3.67
2023-03-11T07:55:13.473Z,4.65
2023-03-11T07:57:51.543Z,3.90
2023-03-11T08:00:30.766Z,4.22
2023-03-11T08:03:22.258Z,3.45
2023-03-11T08:06:27.705Z,3.70
2023-03-11T08:09:02.279Z,3.35
2023-03-11T08:11:43.738Z,4.03
2023-03-11T08:14:21.351Z,3.50
2023-03-11T08:16:53.098Z,2.95
2023-03-11T08:19:31.842Z,4.35
2023-03-11T08:22:32.631Z,3.25
2023-03-11T08:25:08.881Z,3.00
2023-03-11T08:28:03.186Z,4.82
2023-03-11T08:30:51.605Z,4.18
2023-03-11T08:42:52.362Z,3.03
2023-03-11T08:49:15.714Z,3.65
2023-03-11T08:54:41.276Z,3.03
2023-03-11T09:09:22.834Z,2.35
2023-03-11T09:11:56.136Z,2.45
2023-03-11T09:23:50.132Z,2.25
2023-03-11T09:27:05.269Z,1.77
2023-03-11T09:29:58.097Z,1.67
2023-03-11T09:32:28.090Z,2.10
2023-03-11T09:34:58.263Z,1.90
2023-03-11T09:40:48.399Z,2.63
2023-03-11T09:54:47.500Z,1.90
2023-03-11T10:00:26.383Z,2.30
2023-03-11T10:02:56.732Z,2.08
2023-03-11T10:05:41.228Z,1.75
2023-03-11T10:12:24.021Z,2.25
2023-03-11T10:18:38.950Z,5.15
2023-03-11T10:22:00.372Z,3.85
2023-03-11T10:25:01.863Z,2.72
2023-03-11T10:27:50.684Z,2.92
2023-03-11T10:30:57.774Z,2.63
2023-03-11T10:34:43.440Z,2.38
2023-03-11T10:37:50.168Z,2.28
2023-03-11T10:40:35.888Z,2.80
2023-03-11T10:43:28.417Z,2.25
2023-03-11T10:45:57.856Z,1.95
2023-03-11T10:48:28.486Z,3.25
2023-03-11T10:51:11.952Z,1.73
2023-03-11T10:54:01.450Z,2.95
2023-03-11T10:56:55.841Z,1.95
2023-03-11T10:59:47.447Z,3.80
2023-03-11T11:02:43.660Z,2.45
2023-03-11T11:05:39.045Z,3.20
2023-03-11T11:11:09.597Z,2.20
2023-03-11T11:13:59.183Z,1.63
2023-03-11T11:16:38.168Z,2.97
2023-03-11T11:19:17.489Z,1.70
2023-03-11T11:21:52.551Z,2.25
2023-03-11T11:24:45.979Z,4.15
2023-03-11T11:27:28.852Z,2.35
2023-03-11T11:30:19.652Z,2.25
2023-03-11T11:35:58.135Z,1.38
2023-03-11T11:38:36.632Z,1.70
2023-03-11T11:41:06.765Z,2.55
2023-03-11T11:43:48.801Z,2.05
2023-03-11T11:46:37.501Z,2.05
2023-03-11T11:49:29.181Z,2.13
2023-03-11T11:52:25.675Z,2.53
2023-03-11T11:55:29.029Z,2.15
2023-03-11T11:58:03.528Z,2.20
2023-03-11T12:00:43.616Z,1.70
2023-03-11T12:03:45.614Z,1.85
2023-03-11T12:06:43.091Z,1.73
2023-03-11T12:10:19.782Z,1.40
2023-03-11T12:13:13.474Z,1.70
2023-03-11T12:16:06.941Z,1.33
2023-03-11T12:22:45.045Z,1.40
2023-03-11T12:25:42.637Z,2.17
2023-03-11T12:31:32.800Z,1.75
2023-03-11T12:34:22.600Z,1.77
2023-03-11T12:40:47.646Z,2.22
2023-03-11T12:43:35.597Z,1.70
2023-03-11T12:46:19.743Z,2.55
2023-03-11T12:49:45.124Z,1.83
2023-03-11T12:52:28.822Z,1.52
2023-03-11T12:55:00.789Z,2.67
2023-03-11T13:04:16.787Z,1.65
2023-03-11T13:07:54.864Z,2.30
2023-03-11T13:13:46.632Z,1.60
2023-03-11T13:16:34.965Z,1.83
2023-03-11T13:19:38.041Z,2.05
2023-03-11T13:23:09.026Z,2.13
2023-03-11T13:25:43.679Z,1.92
2023-03-11T13:28:55.040Z,2.10
2023-03-11T13:32:05.282Z,2.08
2023-03-11T13:35:08.561Z,2.10
2023-03-11T13:37:56.500Z,1.80
2023-03-11T13:40:34.176Z,2.90
2023-03-11T13:43:31.320Z,2.63
2023-03-11T13:46:28.700Z,1.75
2023-03-11T13:52:24.559Z,2.40
2023-03-11T13:55:52.836Z,2.63
2023-03-11T13:58:30.423Z,2.65
2023-03-11T14:01:03.219Z,2.75
2023-03-11T14:03:54.027Z,1.85
2023-03-11T14:06:24.158Z,2.22
2023-03-11T14:08:55.459Z,2.20
2023-03-11T14:11:31.858Z,2.28
2023-03-11T14:19:43.012Z,2.30
2023-03-11T14:22:12.675Z,2.50
2023-03-11T14:24:47.700Z,2.25
2023-03-11T14:27:24.771Z,2.35
2023-03-11T14:29:53.478Z,2.20
2023-03-11T14:35:25.109Z,2.15
2023-03-11T14:38:05.378Z,2.20
2023-03-11T14:40:43.338Z,2.72
2023-03-11T14:43:23.468Z,2.67
2023-03-11T14:45:57.835Z,3.30
2023-03-11T14:48:34.652Z,2.03
2023-03-11T14:51:27.532Z,2.35
2023-03-11T14:54:11.115Z,2.97
2023-03-11T14:56:51.437Z,3.03
2023-03-11T14:59:39.975Z,2.28
2023-03-11T15:02:50.559Z,2.60
2023-03-11T15:05:37.878Z,1.73
2023-03-11T15:11:40.703Z,3.75
2023-03-11T15:14:51.889Z,2.15
2023-03-11T15:17:41.151Z,2.13
2023-03-11T15:20:37.608Z,2.72
2023-03-11T15:23:30.252Z,2.17
2023-03-11T15:25:59.140Z,1.67
2023-03-11T15:28:37.754Z,1.50
2023-03-11T15:31:28.605Z,4.22
2023-03-11T15:34:19.301Z,2.53
2023-03-11T15:36:54.806Z,2.50
2023-03-11T15:39:31.726Z,2.10
2023-03-11T15:42:20.494Z,2.65
2023-03-11T15:45:06.446Z,2.53
2023-03-11T15:47:36.187Z,1.65
2023-03-11T15:50:50.549Z,2.20
2023-03-11T15:53:26.423Z,1.60
2023-03-11T15:56:07.861Z,2.05
2023-03-11T15:58:38.673Z,1.55
2023-03-11T16:01:18.655Z,2.88
2023-03-11T16:04:20.210Z,1.73
2023-03-11T16:07:07.803Z,1.55
2023-03-11T16:09:46.842Z,1.85
2023-03-11T16:12:23.729Z,1.98
2023-03-11T16:18:09.563Z,1.95
2023-03-11T16:20:52.818Z,2.38
2023-03-11T16:27:23.329Z,2.88
2023-03-11T16:29:58.461Z,2.95
2023-03-11T16:32:28.711Z,2.38
2023-03-11T16:34:59.317Z,2.03
2023-03-11T16:37:34.388Z,1.60
2023-03-11T16:40:25.544Z,3.63
2023-03-11T16:43:16.266Z,1.75
2023-03-11T16:46:11.263Z,2.22
2023-03-11T16:49:01.172Z,2.05
2023-03-11T16:51:50.393Z,2.42
2023-03-11T16:54:23.102Z,2.60
2023-03-11T16:56:54.739Z,2.70
2023-03-11T16:59:40.984Z,2.13
2023-03-11T17:02:30.362Z,3.20
2023-03-11T17:05:13.248Z,3.63
2023-03-11T17:08:08.706Z,2.85
2023-03-11T17:10:43.255Z,2.72
2023-03-11T17:13:19.145Z,3.40
2023-03-11T17:16:11.245Z,3.10
2023-03-11T17:19:03.787Z,4.63
2023-03-11T17:21:38.845Z,4.55
2023-03-11T17:24:28.735Z,6.72
2023-03-11T17:27:22.939Z,7.05
2023-03-11T17:29:57.916Z,4.43
2023-03-11T17:32:48.135Z,5.45
2023-03-11T17:35:23.931Z,3.60
2023-03-11T17:38:08.152Z,4.13
2023-03-11T17:40:43.319Z,5.50
2023-03-11T17:43:14.278Z,9.93
2023-03-11T17:45:49.775Z,5.38
2023-03-11T17:48:23.672Z,5.47
2023-03-11T17:50:59.304Z,5.05
2023-03-11T17:53:46.784Z,6.78
2023-03-11T17:56:57.948Z,8.00
2023-03-11T17:59:35.835Z,6.32
2023-03-11T18:02:32.742Z,5.55
2023-03-11T18:05:19.537Z,7.15
2023-03-11T18:08:00.289Z,5.60
2023-03-11T18:13:23.497Z,5.53
2023-03-11T18:16:27.833Z,6.03
2023-03-11T18:19:02.409Z,5.68
2023-03-11T18:24:40.241Z,6.83
2023-03-11T18:27:08.965Z,8.63
2023-03-11T18:30:03.607Z,9.40
2023-03-11T18:32:35.002Z,10.88
2023-03-11T18:35:22.371Z,10.43
2023-03-11T18:37:50.387Z,9.30
2023-03-11T18:40:28.293Z,11.80
2023-03-11T18:43:04.994Z,11.30
2023-03-11T18:45:35.771Z,14.07
2023-03-11T18:48:09.109Z,13.23
2023-03-11T18:50:42.834Z,14.13
2023-03-11T18:56:08.316Z,16.02
2023-03-11T18:58:38.980Z,16.38
2023-03-11T19:01:13.017Z,17.23
2023-03-11T19:03:50.467Z,18.05
2023-03-11T19:06:32.506Z,17.23
2023-03-11T19:09:14.087Z,14.68
2023-03-11T19:11:50.636Z,17.13
2023-03-11T19:14:23.927Z,14.93
2023-03-11T19:17:25.779Z,15.48
2023-03-11T19:19:56.337Z,14.73
2023-03-11T19:22:25.352Z,15.75
2023-03-11T19:24:57.374Z,18.27
2023-03-11T19:27:26.679Z,17.38
2023-03-11T19:30:18.553Z,18.98
2023-03-11T19:32:54.046Z,16.52
2023-03-11T19:35:26.919Z,14.35
2023-03-11T19:37:59.939Z,12.73
2023-03-11T19:40:34.061Z,14.63
2023-03-11T19:43:44.307Z,16.33
2023-03-11T19:46:29.249Z,15.98
2023-03-11T19:49:25.428Z,16.80
2023-03-11T19:52:02.969Z,15.88
2023-03-11T19:54:34.232Z,18.48
2023-03-11T19:57:04.321Z,18.55
2023-03-11T19:59:38.508Z,19.30
2023-03-11T20:02:11.584Z,20.67
2023-03-11T20:04:48.961Z,21.92
2023-03-11T20:07:21.263Z,20.42
2023-03-11T20:09:51.949Z,17.63
2023-03-11T20:12:28.442Z,18.10
2023-03-11T20:15:01.624Z,16.30
2023-03-11T20:17:54.375Z,15.02
2023-03-11T20:23:05.442Z,13.80
2023-03-11T20:25:55.885Z,14.95
2023-03-11T20:28:41.674Z,11.00
2023-03-11T20:31:26.266Z,15.70
2023-03-11T20:36:47.056Z,13.65
2023-03-11T20:39:20.701Z,9.02
2023-03-11T20:42:00.146Z,8.55
2023-03-11T20:44:30.617Z,8.18
2023-03-11T20:47:00.157Z,7.28
2023-03-11T20:49:31.413Z,7.30
2023-03-11T20:52:19.737Z,7.30
2023-03-11T20:55:00.172Z,8.05
2023-03-11T20:57:30.710Z,7.20
2023-03-11T21:00:12.737Z,6.40
2023-03-11T21:03:00.567Z,7.07
2023-03-11T21:05:35.668Z,5.95
2023-03-11T21:08:07.452Z,6.45
2023-03-11T21:10:48.215Z,6.53
2023-03-11T21:13:18.511Z,6.93
2023-03-11T21:16:11.521Z,7.40
2023-03-11T21:18:44.404Z,7.50
2023-03-11T21:21:18.256Z,7.00
2023-03-11T21:27:02.315Z,6.78
2023-03-11T21:29:39.667Z,8.40
2023-03-11T21:35:09.945Z,6.85
2023-03-11T21:37:44.598Z,7.90
2023-03-11T21:40:25.912Z,6.88
2023-03-11T21:43:04.519Z,6.65
2023-03-11T21:45:43.795Z,6.70
2023-03-11T21:48:19.493Z,7.15
2023-03-11T21:50:52.308Z,7.23
2023-03-11T21:53:26.685Z,6.20
2023-03-11T21:56:02.253Z,6.82
2023-03-11T22:01:20.790Z,6.88
2023-03-11T22:04:42.331Z,7.93
2023-03-11T22:07:28.859Z,6.55
2023-03-11T22:10:03.103Z,7.22
2023-03-11T22:12:52.562Z,6.20
2023-03-11T22:15:21.495Z,6.57
2023-03-11T22:17:50.571Z,7.25
2023-03-11T22:20:19.963Z,6.10
2023-03-11T22:22:54.052Z,6.10
2023-03-11T22:28:31.321Z,5.93
2023-03-11T22:33:56.657Z,5.95
2023-03-11T22:36:54.951Z,5.63
2023-03-11T22:42:23.165Z,6.32
2023-03-11T22:45:00.974Z,6.72
2023-03-11T22:47:33.033Z,5.68
2023-03-11T22:53:25.949Z,6.38
2023-03-11T22:59:05.830Z,5.40
2023-03-11T23:01:38.997Z,5.70
2023-03-11T23:04:26.768Z,5.95
2023-03-11T23:07:07.134Z,4.78
2023-03-11T23:09:37.378Z,6.50
2023-03-11T23:12:14.373Z,5.93
2023-03-11T23:15:02.680Z,6.53
2023-03-11T23:17:37.319Z,5.38
2023-03-11T23:20:11.564Z,6.35
2023-03-11T23:22:46.239Z,5.00
2023-03-11T23:25:17.404Z,5.30
2023-03-11T23:27:51.167Z,5.22
2023-03-11T23:30:19.568Z,6.10
2023-03-11T23:33:07.238Z,5.40
2023-03-11T23:35:42.766Z,6.10
2023-03-11T23:38:14.571Z,7.05
2023-03-11T23:40:44.753Z,5.97
2023-03-11T23:43:19.682Z,6.57
2023-03-11T23:45:53.556Z,5.45
2023-03-11T23:48:22.899Z,5.38
2023-03-11T23:50:54.728Z,4.85
2023-03-11T23:53:31.506Z,5.32
2023-03-11T23:56:09.181Z,6.10
2023-03-11T23:58:38.555Z,5.65
